Time;durP1;ratioP1;P1;durP2;ratioP2;P2;SDS_P1;SDS_P2;PMS_P1;PMS_P2;Temp;Humidity;BMP_temperature;BMP_pressure;BME280_temperature;BME280_humidity;BME280_pressure;Samples;Min_cycle;Max_cycle;Signal;HPM_P1;HPM_P2
2022/01/07 00:01:13;;;;;;;5.63;0.40;;;4.00;99.90;;;;;;6312274;22;20033;-75
2022/01/07 00:03:38;;;;;;;8.80;1.38;;;3.90;99.90;;;;;;6339946;22;20002;-75
2022/01/07 00:06:04;;;;;;;3.78;0.80;;;3.90;99.90;;;;;;6340044;22;20431;-75
2022/01/07 00:08:30;;;;;;;8.38;1.50;;;3.80;99.90;;;;;;6311964;22;20503;-75
2022/01/07 00:10:56;;;;;;;3.33;0.57;;;3.80;99.90;;;;;;6339894;22;19998;-76
2022/01/07 00:13:22;;;;;;;10.55;1.83;;;3.80;99.90;;;;;;6312122;22;20009;-75
2022/01/07 00:15:48;;;;;;;6.88;0.90;;;3.70;99.90;;;;;;6311944;22;20429;-75
2022/01/07 00:18:14;;;;;;;7.07;0.68;;;3.60;99.90;;;;;;6312808;22;19999;-76
2022/01/07 00:20:40;;;;;;;5.85;0.80;;;3.60;99.90;;;;;;6312525;22;20502;-75
2022/01/07 00:23:06;;;;;;;9.50;0.60;;;3.60;99.90;;;;;;6340618;22;20005;-75
2022/01/07 00:25:32;;;;;;;5.28;0.55;;;3.40;99.90;;;;;;6340395;22;20006;-75
2022/01/07 00:27:57;;;;;;;7.47;0.90;;;3.40;99.90;;;;;;6341147;22;20078;-76
2022/01/07 00:30:23;;;;;;;9.80;2.03;;;3.40;99.90;;;;;;6312580;22;20007;-75
2022/01/07 00:32:50;;;;;;;5.55;0.75;;;3.40;99.90;;;;;;6312490;22;19999;-74
2022/01/07 00:35:20;;;;;;;9.80;1.70;;;3.30;99.90;;;;;;6312309;22;20041;-74
2022/01/07 00:37:47;;;;;;;6.57;0.98;;;3.20;99.90;;;;;;6339774;22;20350;-75
2022/01/07 00:40:17;;;;;;;10.45;1.30;;;3.20;99.90;;;;;;6339507;22;19998;-75
2022/01/07 00:42:43;;;;;;;4.63;1.02;;;3.20;99.90;;;;;;6312119;22;20311;-76
2022/01/07 00:45:09;;;;;;;3.55;0.82;;;3.20;99.90;;;;;;6339735;22;20030;-74
2022/01/07 00:47:35;;;;;;;4.00;0.65;;;3.20;99.90;;;;;;6339832;22;20013;-74
2022/01/07 00:50:01;;;;;;;12.02;1.73;;;3.20;99.90;;;;;;6339792;22;20007;-75
2022/01/07 00:52:27;;;;;;;7.18;1.60;;;3.20;99.90;;;;;;6339505;22;20010;-74
2022/01/07 00:54:52;;;;;;;5.57;1.05;;;3.20;99.90;;;;;;6339385;22;20083;-74
2022/01/07 00:57:18;;;;;;;11.70;0.95;;;3.20;99.90;;;;;;6339483;22;20029;-74
2022/01/07 00:59:46;;;;;;;12.75;1.33;;;3.20;99.90;;;;;;6339587;22;19995;-75
2022/01/07 01:02:12;;;;;;;6.77;0.60;;;3.10;99.90;;;;;;6312077;22;20029;-75
2022/01/07 01:04:37;;;;;;;7.57;1.27;;;3.20;99.90;;;;;;6339633;22;20060;-75
2022/01/07 01:07:03;;;;;;;6.70;1.02;;;3.20;99.90;;;;;;6339601;22;20006;-74
2022/01/07 01:09:29;;;;;;;6.68;1.08;;;3.20;99.90;;;;;;6311847;22;19999;-76
2022/01/07 01:11:55;;;;;;;5.95;0.98;;;3.20;99.90;;;;;;6311960;22;20433;-75
2022/01/07 01:14:20;;;;;;;5.65;0.93;;;3.10;99.90;;;;;;6340033;22;20009;-75
2022/01/07 01:16:47;;;;;;;6.82;0.82;;;3.20;99.90;;;;;;6339761;22;20410;-74
2022/01/07 01:19:13;;;;;;;7.63;1.40;;;3.30;99.90;;;;;;6311678;22;20477;-75
2022/01/07 01:21:38;;;;;;;5.20;1.17;;;3.30;99.90;;;;;;6311512;22;20041;-73
2022/01/07 01:24:04;;;;;;;4.50;1.08;;;3.30;99.90;;;;;;6339210;22;20003;-76
2022/01/07 01:26:33;;;;;;;9.55;1.40;;;3.30;99.90;;;;;;6339225;22;20003;-75
2022/01/07 01:28:58;;;;;;;3.42;0.60;;;3.20;99.90;;;;;;6339334;22;20041;-75
2022/01/07 01:31:24;;;;;;;5.70;1.50;;;3.30;99.90;;;;;;6339203;22;20010;-75
2022/01/07 01:33:49;;;;;;;5.82;0.98;;;3.20;99.90;;;;;;6339892;22;20006;-76
2022/01/07 01:36:15;;;;;;;7.55;1.33;;;3.30;99.90;;;;;;6339061;22;20062;-76
2022/01/07 01:38:42;;;;;;;7.80;1.00;;;3.30;99.90;;;;;;6339012;22;19999;-76
2022/01/07 01:41:09;;;;;;;6.90;1.10;;;3.30;99.90;;;;;;6338938;22;20307;-76
2022/01/07 01:43:35;;;;;;;10.32;0.93;;;3.20;99.90;;;;;;6311269;22;20380;-76
2022/01/07 01:46:01;;;;;;;5.97;0.88;;;3.20;99.90;;;;;;6339038;22;20026;-77
2022/01/07 01:48:27;;;;;;;4.97;0.75;;;3.20;99.90;;;;;;6338865;22;20036;-77
2022/01/07 01:50:55;;;;;;;11.32;1.55;;;3.20;99.90;;;;;;6338879;22;20376;-77
2022/01/07 01:53:21;;;;;;;4.35;0.80;;;3.20;99.90;;;;;;6311474;22;20003;-77
2022/01/07 01:55:46;;;;;;;4.68;0.80;;;3.20;99.90;;;;;;6338929;22;20038;-77
2022/01/07 01:58:12;;;;;;;5.57;0.90;;;3.30;99.90;;;;;;6339017;22;19995;-77
2022/01/07 02:00:39;;;;;;;6.30;1.20;;;3.20;99.90;;;;;;6340802;22;20300;-77
2022/01/07 02:03:05;;;;;;;15.25;2.03;;;3.20;99.90;;;;;;6311198;22;20342;-77
2022/01/07 02:05:34;;;;;;;8.93;1.90;;;3.30;99.90;;;;;;6312008;22;20009;-77
2022/01/07 02:08:00;;;;;;;;;;;6.20;99.90;;;;;;6340771;22;20010;-76
2022/01/07 02:10:27;;;;;;;8.05;1.05;;;3.20;99.90;;;;;;6313214;22;20313;-76
2022/01/07 02:12:53;;;;;;;4.43;1.00;;;3.30;99.90;;;;;;6340828;22;19999;-73
2022/01/07 02:15:19;;;;;;;9.35;1.20;;;3.20;99.90;;;;;;6340975;22;20006;-73
2022/01/07 02:17:47;;;;;;;8.10;1.63;;;3.20;99.90;;;;;;6341131;22;20041;-73
2022/01/07 02:20:15;;;;;;;9.52;1.77;;;3.20;99.90;;;;;;6341365;22;20052;-75
2022/01/07 02:22:42;;;;;;;2.60;0.85;;;3.10;99.90;;;;;;6341147;22;20434;-76
2022/01/07 02:25:08;;;;;;;11.82;1.30;;;3.20;99.90;;;;;;6340954;22;19999;-76
2022/01/07 02:27:37;;;;;;;5.60;1.45;;;3.20;99.90;;;;;;6340881;22;20329;-76
2022/01/07 02:30:05;;;;;;;6.57;1.10;;;3.20;99.90;;;;;;6340693;22;20003;-76
2022/01/07 02:32:31;;;;;;;12.20;1.47;;;3.20;99.90;;;;;;6341049;22;20002;-76
2022/01/07 02:34:56;;;;;;;3.40;0.82;;;3.30;99.90;;;;;;6312995;22;20629;-74
2022/01/07 02:37:22;;;;;;;8.25;0.70;;;3.30;99.90;;;;;;6313204;22;20447;-74
2022/01/07 02:39:49;;;;;;;8.55;1.23;;;3.20;99.90;;;;;;6340567;22;20044;-76
2022/01/07 02:42:15;;;;;;;6.13;1.15;;;3.30;99.90;;;;;;6341125;22;19999;-76
2022/01/07 02:44:40;;;;;;;8.23;1.02;;;3.30;99.90;;;;;;6340553;22;20009;-76
2022/01/07 02:47:06;;;;;;;4.25;1.05;;;3.30;99.90;;;;;;6340454;22;19999;-74
2022/01/07 02:49:32;;;;;;;5.45;1.38;;;3.20;99.90;;;;;;6340454;22;20338;-74
2022/01/07 02:51:57;;;;;;;4.45;0.98;;;3.30;99.90;;;;;;6312963;22;20006;-76
2022/01/07 02:54:23;;;;;;;6.10;0.80;;;3.30;99.90;;;;;;6312457;22;20400;-76
2022/01/07 02:56:48;;;;;;;3.22;0.93;;;3.30;99.90;;;;;;6341197;22;20304;-76
2022/01/07 02:59:14;;;;;;;7.40;0.88;;;3.30;99.90;;;;;;6341492;22;20007;-74
2022/01/07 03:01:40;;;;;;;6.38;1.00;;;3.30;99.90;;;;;;6313208;22;19999;-75
2022/01/07 03:04:07;;;;;;;7.05;1.20;;;3.20;99.90;;;;;;6340937;22;19999;-75
2022/01/07 03:06:34;;;;;;;6.32;2.00;;;3.20;99.90;;;;;;6340729;22;20006;-75
2022/01/07 03:08:59;;;;;;;3.53;0.85;;;3.10;99.90;;;;;;6341007;22;20082;-75
2022/01/07 03:11:25;;;;;;;7.40;2.10;;;3.20;99.90;;;;;;6341278;22;20518;-75
2022/01/07 03:13:51;;;;;;;15.70;1.98;;;3.20;99.90;;;;;;6340643;22;20022;-75
2022/01/07 03:16:17;;;;;;;6.97;2.55;;;3.20;99.90;;;;;;6341203;22;20410;-75
2022/01/07 03:18:42;;;;;;;5.07;1.50;;;3.20;99.90;;;;;;6312913;22;20003;-75
2022/01/07 03:21:08;;;;;;;8.02;1.50;;;3.20;99.90;;;;;;6340883;22;20015;-75
2022/01/07 03:23:36;;;;;;;4.97;1.70;;;3.20;99.90;;;;;;6341335;22;20007;-75
2022/01/07 03:26:02;;;;;;;4.13;1.95;;;3.20;99.90;;;;;;6341119;22;19999;-75
2022/01/07 03:28:31;;;;;;;4.97;1.40;;;3.30;99.90;;;;;;6341164;22;20026;-74
2022/01/07 03:30:57;;;;;;;5.95;1.92;;;3.30;99.90;;;;;;6313487;22;20116;-74
2022/01/07 03:33:22;;;;;;;6.03;1.70;;;3.30;99.90;;;;;;6313003;22;20056;-74
2022/01/07 03:35:48;;;;;;;5.43;1.40;;;3.30;99.90;;;;;;6340360;22;20007;-74
2022/01/07 03:38:14;;;;;;;3.03;1.60;;;3.40;99.90;;;;;;6340197;22;20418;-75
2022/01/07 03:40:39;;;;;;;1.98;1.08;;;3.40;99.90;;;;;;6339818;22;20002;-75
2022/01/07 03:43:06;;;;;;;4.30;1.40;;;3.30;99.90;;;;;;6340046;22;20337;-76
2022/01/07 03:45:31;;;;;;;5.10;2.40;;;3.30;99.90;;;;;;6340018;22;20338;-75
2022/01/07 03:47:57;;;;;;;6.22;2.00;;;3.30;99.90;;;;;;6312283;22;20036;-75
2022/01/07 03:50:28;;;;;;;6.63;1.70;;;3.20;99.90;;;;;;6340039;22;20009;-73
2022/01/07 03:52:55;;;;;;;5.95;2.67;;;3.30;99.90;;;;;;6340722;22;20006;-74
2022/01/07 03:55:23;;;;;;;3.08;1.50;;;3.10;99.90;;;;;;6312029;22;20006;-75
2022/01/07 03:57:49;;;;;;;5.23;1.43;;;3.10;99.90;;;;;;6339871;22;20003;-75
2022/01/07 04:00:21;;;;;;;2.42;1.35;;;3.00;99.90;;;;;;6339564;22;20528;-75
2022/01/07 04:02:48;;;;;;;4.45;2.28;;;3.10;99.90;;;;;;6312121;22;20006;-74
2022/01/07 04:05:15;;;;;;;5.07;2.35;;;3.20;99.90;;;;;;6339725;22;20082;-75
2022/01/07 04:07:41;;;;;;;3.33;1.92;;;3.20;99.90;;;;;;6339894;22;20006;-74
2022/01/07 04:10:07;;;;;;;4.03;2.58;;;3.20;99.90;;;;;;6339607;22;20006;-74
2022/01/07 04:12:33;;;;;;;3.42;1.90;;;3.20;99.90;;;;;;6339542;22;20003;-74
2022/01/07 04:15:08;;;;;;;4.03;1.75;;;3.20;99.90;;;;;;6339917;22;20030;-76
2022/01/07 04:17:39;;;;;;;7.30;2.10;;;3.20;99.90;;;;;;6339536;22;19994;-76
2022/01/07 04:20:07;;;;;;;2.72;1.63;;;3.20;99.90;;;;;;6339367;22;20003;-76
2022/01/07 04:22:33;;;;;;;2.08;1.27;;;3.30;99.90;;;;;;6339556;22;20074;-75
2022/01/07 04:25:04;;;;;;;4.63;1.70;;;3.20;99.90;;;;;;6339903;22;20013;-76
2022/01/07 04:27:30;;;;;;;6.45;1.95;;;3.20;99.90;;;;;;6311717;22;20003;-76
2022/01/07 04:29:56;;;;;;;2.42;1.67;;;3.30;99.90;;;;;;6339334;22;20003;-75
2022/01/07 04:32:21;;;;;;;4.10;1.85;;;3.20;99.90;;;;;;6339753;22;20003;-75
2022/01/07 04:34:47;;;;;;;3.78;1.58;;;3.20;99.90;;;;;;6339403;22;20007;-76
2022/01/07 04:37:13;;;;;;;3.97;2.17;;;3.20;99.90;;;;;;6311931;22;20055;-76
2022/01/07 04:39:38;;;;;;;4.78;2.45;;;3.20;99.90;;;;;;6339919;22;20025;-76
2022/01/07 04:42:04;;;;;;;3.40;2.45;;;3.30;99.90;;;;;;6339947;22;19999;-77
2022/01/07 04:44:30;;;;;;;5.00;2.50;;;3.20;99.90;;;;;;6339577;22;20430;-76
2022/01/07 04:46:56;;;;;;;5.85;2.83;;;3.30;99.90;;;;;;6312369;22;20002;-76
2022/01/07 04:49:21;;;;;;;4.60;2.67;;;3.40;99.90;;;;;;6339331;22;20086;-75
2022/01/07 04:51:47;;;;;;;3.67;2.42;;;3.30;99.90;;;;;;6311473;22;20038;-75
2022/01/07 04:54:13;;;;;;;5.18;2.63;;;3.40;99.90;;;;;;6339279;22;20003;-74
2022/01/07 04:56:38;;;;;;;5.88;2.90;;;3.40;99.90;;;;;;6339238;22;20006;-74
2022/01/07 04:59:04;;;;;;;5.22;2.85;;;3.40;99.90;;;;;;6339253;22;20001;-75
2022/01/07 05:01:29;;;;;;;4.88;2.90;;;3.50;99.90;;;;;;6339169;22;19999;-74
2022/01/07 05:03:55;;;;;;;6.50;3.20;;;3.50;99.90;;;;;;6311484;22;20006;-75
2022/01/07 05:08:48;;;;;;;6.13;3.08;;;3.60;99.90;;;;;;6340207;22;20003;-74
2022/01/07 05:11:14;;;;;;;4.90;2.88;;;3.50;99.90;;;;;;6339502;22;20009;-74
2022/01/07 05:13:39;;;;;;;10.63;4.10;;;3.60;99.90;;;;;;6311443;22;20090;-74
2022/01/07 05:16:06;;;;;;;7.63;3.00;;;3.60;99.90;;;;;;6338998;22;20044;-75
2022/01/07 05:18:32;;;;;;;6.88;3.45;;;3.60;99.90;;;;;;6339016;22;20074;-74
2022/01/07 05:20:58;;;;;;;9.95;4.05;;;3.60;99.90;;;;;;6311388;22;20027;-74
2022/01/07 05:23:23;;;;;;;8.88;4.05;;;3.70;99.90;;;;;;6311436;22;20005;-74
2022/01/07 05:25:49;;;;;;;8.43;4.13;;;3.70;99.90;;;;;;6339180;22;20006;-75
2022/01/07 05:28:15;;;;;;;9.90;4.35;;;3.70;99.90;;;;;;6311526;22;20071;-73
2022/01/07 05:30:40;;;;;;;9.50;4.70;;;3.80;99.90;;;;;;6339003;22;20014;-74
2022/01/07 05:33:06;;;;;;;9.88;4.55;;;3.80;99.90;;;;;;6311269;22;20446;-75
2022/01/07 05:35:31;;;;;;;8.85;5.43;;;3.80;99.90;;;;;;6311224;22;20010;-75
2022/01/07 05:37:57;;;;;;;8.52;4.75;;;3.80;99.90;;;;;;6338989;22;20002;-75
2022/01/07 05:40:23;;;;;;;8.13;5.10;;;3.80;99.90;;;;;;6338909;22;20022;-74
2022/01/07 05:42:48;;;;;;;12.02;5.40;;;3.90;99.90;;;;;;6338930;22;20002;-74
2022/01/07 05:45:14;;;;;;;10.65;5.40;;;4.00;99.90;;;;;;6338943;22;20529;-73
2022/01/07 05:47:39;;;;;;;8.98;5.53;;;4.00;99.90;;;;;;6338978;22;20002;-75
2022/01/07 05:50:06;;;;;;;8.35;3.42;;;4.00;99.90;;;;;;6311479;22;20063;-75
2022/01/07 05:52:31;;;;;;;15.35;6.00;;;4.20;99.90;;;;;;6338788;22;20059;-75
2022/01/07 05:54:57;;;;;;;10.95;5.85;;;4.20;99.90;;;;;;6339128;22;20028;-76
2022/01/07 05:57:23;;;;;;;10.25;5.38;;;4.20;99.90;;;;;;6338932;22;20426;-75
2022/01/07 05:59:48;;;;;;;9.85;4.90;;;4.20;99.90;;;;;;6338784;22;19999;-75
2022/01/07 06:02:14;;;;;;;13.15;5.40;;;4.30;99.90;;;;;;6338825;22;20002;-76
2022/01/07 06:04:39;;;;;;;18.92;5.18;;;4.30;99.90;;;;;;6339509;22;19998;-76
2022/01/07 06:07:05;;;;;;;16.83;6.35;;;4.30;99.90;;;;;;6339233;22;20007;-75
2022/01/07 06:09:30;;;;;;;10.27;5.70;;;4.40;99.90;;;;;;6339363;22;20314;-76
2022/01/07 06:11:56;;;;;;;16.45;5.80;;;4.40;99.90;;;;;;6311137;22;20102;-76
2022/01/07 06:14:23;;;;;;;12.27;5.38;;;4.40;99.90;;;;;;6339033;22;20068;-76
2022/01/07 06:16:48;;;;;;;17.33;7.32;;;4.40;99.90;;;;;;6338634;22;19995;-76
2022/01/07 06:19:14;;;;;;;9.80;5.22;;;4.50;99.90;;;;;;6338644;22;20005;-76
2022/01/07 06:21:39;;;;;;;16.75;5.97;;;4.50;99.90;;;;;;6338639;22;20093;-76
2022/01/07 06:24:06;;;;;;;8.98;4.75;;;4.50;99.90;;;;;;6338991;22;20006;-75
2022/01/07 06:26:31;;;;;;;11.32;5.90;;;4.60;99.90;;;;;;6311015;22;20430;-76
2022/01/07 06:28:57;;;;;;;13.73;5.55;;;4.60;99.90;;;;;;6338564;22;19995;-75
2022/01/07 06:31:23;;;;;;;18.80;5.88;;;4.50;99.90;;;;;;6339355;22;20314;-76
2022/01/07 06:33:48;;;;;;;13.50;6.03;;;4.60;99.90;;;;;;6311003;22;19995;-75
2022/01/07 06:36:14;;;;;;;19.98;5.63;;;4.60;99.90;;;;;;6338570;22;20010;-74
2022/01/07 06:38:39;;;;;;;14.02;5.57;;;4.70;99.90;;;;;;6339388;22;19995;-74
2022/01/07 06:41:06;;;;;;;13.25;6.10;;;4.70;99.90;;;;;;6338707;22;19995;-74
2022/01/07 06:43:32;;;;;;;15.15;6.25;;;4.70;99.90;;;;;;6338608;22;20006;-73
2022/01/07 06:45:58;;;;;;;17.73;5.20;;;4.80;99.90;;;;;;6310940;22;20089;-74
2022/01/07 06:48:23;;;;;;;14.18;5.95;;;4.70;99.90;;;;;;6311218;22;20006;-74
2022/01/07 06:50:49;;;;;;;10.90;5.93;;;4.70;99.90;;;;;;6338383;22;20034;-72
2022/01/07 06:53:15;;;;;;;16.30;5.70;;;4.70;99.90;;;;;;6340239;22;20007;-74
2022/01/07 06:55:40;;;;;;;13.40;6.10;;;4.80;99.90;;;;;;6340534;22;20003;-72
2022/01/07 06:58:06;;;;;;;14.57;6.25;;;4.70;99.90;;;;;;6313168;22;20005;-72
2022/01/07 07:00:31;;;;;;;18.25;6.85;;;4.80;99.90;;;;;;6313253;22;20049;-73
2022/01/07 07:02:57;;;;;;;18.33;6.40;;;4.80;99.90;;;;;;6340391;22;20360;-73
2022/01/07 07:05:24;;;;;;;10.93;5.90;;;4.90;99.90;;;;;;6340584;22;20033;-73
2022/01/07 07:07:50;;;;;;;14.90;6.22;;;4.90;99.90;;;;;;6312771;22;20003;-73
2022/01/07 07:10:16;;;;;;;18.58;7.05;;;4.80;99.90;;;;;;6340267;22;19999;-71
2022/01/07 07:12:42;;;;;;;16.88;5.80;;;4.80;99.90;;;;;;6313098;22;20003;-71
2022/01/07 07:15:07;;;;;;;15.55;5.30;;;4.80;99.90;;;;;;6312798;22;20034;-72
2022/01/07 07:17:33;;;;;;;17.92;6.63;;;4.90;99.90;;;;;;6312696;22;20006;-72
2022/01/07 07:20:00;;;;;;;18.98;7.13;;;4.90;99.90;;;;;;6340290;22;20005;-73
2022/01/07 07:22:26;;;;;;;12.07;5.90;;;4.90;99.90;;;;;;6340287;22;20048;-73
2022/01/07 07:24:51;;;;;;;14.70;6.72;;;5.00;99.90;;;;;;6340431;22;20007;-73
2022/01/07 07:27:17;;;;;;;20.88;6.47;;;5.00;99.90;;;;;;6340719;22;19999;-72
2022/01/07 07:29:43;;;;;;;13.20;6.10;;;5.00;99.90;;;;;;6312691;22;20009;-74
2022/01/07 07:32:10;;;;;;;19.30;6.38;;;5.00;99.90;;;;;;6312718;22;20014;-73
2022/01/07 07:37:05;;;;;;;13.90;6.18;;;5.00;99.90;;;;;;6340400;22;20007;-73
2022/01/07 07:39:30;;;;;;;17.60;6.75;;;4.90;99.90;;;;;;6313015;22;20330;-73
2022/01/07 07:41:56;;;;;;;34.38;8.38;;;4.90;99.90;;;;;;6340339;22;19995;-73
2022/01/07 07:44:22;;;;;;;12.43;6.20;;;5.00;99.90;;;;;;6340492;22;20025;-73
2022/01/07 07:46:47;;;;;;;16.45;6.82;;;4.90;99.90;;;;;;6312515;22;20006;-73
2022/01/07 07:49:14;;;;;;;17.58;6.43;;;5.00;99.90;;;;;;6312837;22;20002;-73
2022/01/07 07:51:39;;;;;;;15.40;6.72;;;5.00;99.90;;;;;;6340254;22;20017;-73
2022/01/07 07:54:05;;;;;;;23.05;7.40;;;5.00;99.90;;;;;;6312277;22;20006;-72
2022/01/07 07:56:31;;;;;;;12.60;6.45;;;4.90;99.90;;;;;;6340547;22;19999;-72
2022/01/07 07:58:58;;;;;;;14.25;6.63;;;5.00;99.90;;;;;;6312401;22;19998;-72
2022/01/07 08:01:24;;;;;;;22.30;7.75;;;5.00;99.90;;;;;;6339945;22;20040;-72
2022/01/07 08:03:50;;;;;;;18.52;6.85;;;5.00;99.90;;;;;;6339682;22;19995;-72
2022/01/07 08:06:16;;;;;;;27.65;7.45;;;5.00;99.90;;;;;;6339939;22;20027;-73
2022/01/07 08:08:42;;;;;;;15.43;5.57;;;5.00;99.90;;;;;;6312155;22;19999;-72
2022/01/07 08:11:10;;;;;;;14.48;5.65;;;5.10;99.90;;;;;;6340130;22;20006;-72
2022/01/07 08:16:23;;;;;;;17.40;5.90;;;5.00;99.90;;;;;;6340345;22;20065;-72
2022/01/07 08:18:51;;;;;;;12.43;5.43;;;4.90;99.90;;;;;;6311970;22;19995;-72
2022/01/07 08:21:17;;;;;;;16.27;6.63;;;5.00;99.90;;;;;;6339594;22;20001;-72
2022/01/07 08:23:44;;;;;;;13.45;5.18;;;5.00;99.90;;;;;;6311894;22;20076;-72
2022/01/07 08:26:12;;;;;;;7.80;3.90;;;5.00;99.90;;;;;;6339534;22;19999;-72
2022/01/07 08:28:43;;;;;;;13.10;4.90;;;5.00;99.90;;;;;;6311851;22;19999;-72
2022/01/07 08:36:26;;;;;;;10.93;4.00;;;5.10;99.90;;;;;;6291395;22;20514;-72
2022/01/07 08:38:55;;;;;;;11.57;4.00;;;5.00;99.90;;;;;;6311645;22;20010;-73
2022/01/07 08:41:23;;;;;;;9.90;3.58;;;5.00;99.90;;;;;;6339487;22;20031;-73
2022/01/07 08:43:49;;;;;;;11.65;3.10;;;4.90;99.90;;;;;;6311881;22;20337;-72
2022/01/07 08:46:15;;;;;;;12.05;3.72;;;4.90;99.90;;;;;;6339672;22;20010;-73
2022/01/07 08:48:42;;;;;;;11.55;3.83;;;4.90;99.90;;;;;;6311694;22;19995;-73
2022/01/07 08:51:08;;;;;;;7.72;2.88;;;4.80;99.90;;;;;;6311699;22;19999;-73
2022/01/07 08:53:34;;;;;;;9.35;3.28;;;4.70;99.90;;;;;;6339445;22;20033;-73
2022/01/07 08:56:00;;;;;;;8.57;3.10;;;4.70;99.90;;;;;;6312017;22;20397;-73
2022/01/07 08:58:26;;;;;;;11.32;3.65;;;4.60;99.90;;;;;;6311578;22;19995;-73
2022/01/07 09:00:52;;;;;;;10.05;3.00;;;4.60;99.90;;;;;;6339354;22;20031;-73
2022/01/07 09:03:17;;;;;;;5.32;1.80;;;4.70;99.90;;;;;;6339592;22;20097;-73
2022/01/07 09:05:44;;;;;;;7.57;2.50;;;4.70;99.90;;;;;;6339288;22;20038;-73
2022/01/07 09:08:11;;;;;;;9.63;2.47;;;4.80;99.90;;;;;;6339668;22;20005;-74
2022/01/07 09:10:41;;;;;;;10.15;2.80;;;4.90;99.90;;;;;;6339252;22;20429;-73
2022/01/07 09:13:07;;;;;;;6.85;1.33;;;4.90;99.90;;;;;;6339443;22;20070;-73
2022/01/07 09:15:33;;;;;;;13.02;2.45;;;5.00;99.90;;;;;;6339552;22;20057;-73
2022/01/07 09:17:58;;;;;;;5.03;1.90;;;5.00;99.90;;;;;;6339671;22;19999;-74
2022/01/07 09:20:25;;;;;;;6.32;2.35;;;5.10;99.90;;;;;;6311681;22;20003;-74
2022/01/07 09:22:51;;;;;;;10.23;1.88;;;5.10;99.90;;;;;;6311831;22;20074;-72
2022/01/07 09:25:17;;;;;;;9.60;2.08;;;5.10;99.90;;;;;;6311678;22;20005;-73
2022/01/07 09:27:43;;;;;;;6.70;2.15;;;5.10;99.90;;;;;;6339457;22;20077;-73
2022/01/07 09:30:10;;;;;;;13.70;2.63;;;5.20;99.90;;;;;;6339224;22;20037;-73
2022/01/07 09:32:37;;;;;;;6.63;2.33;;;5.20;99.90;;;;;;6311634;22;20085;-73
2022/01/07 09:35:03;;;;;;;3.95;1.98;;;5.30;99.90;;;;;;6339432;22;20330;-73
2022/01/07 09:37:29;;;;;;;10.27;2.13;;;5.40;99.90;;;;;;6339268;22;20006;-73
2022/01/07 09:39:54;;;;;;;9.75;2.13;;;5.40;99.90;;;;;;6339246;22;20002;-74
2022/01/07 09:42:20;;;;;;;7.93;2.40;;;5.40;99.90;;;;;;6311508;22;20010;-73
2022/01/07 09:44:46;;;;;;;14.65;2.28;;;5.50;99.90;;;;;;6339470;22;20003;-73
2022/01/07 09:47:12;;;;;;;6.78;2.28;;;5.60;99.90;;;;;;6311557;22;20003;-73
2022/01/07 09:49:39;;;;;;;7.50;1.70;;;5.60;99.90;;;;;;6339213;22;19999;-73
2022/01/07 09:52:05;;;;;;;7.82;1.45;;;5.80;99.90;;;;;;6311329;22;20433;-73
2022/01/07 09:54:34;;;;;;;5.25;1.75;;;5.80;99.90;;;;;;6311297;22;20430;-73
2022/01/07 09:57:00;;;;;;;;;;;5.90;99.90;;;;;;6312088;22;20421;-73
2022/01/07 09:59:26;;;;;;;3.92;1.13;;;5.90;99.90;;;;;;6339751;22;20370;-73
2022/01/07 10:01:59;;;;;;;6.53;2.10;;;6.00;99.90;;;;;;6311230;22;19994;-73
2022/01/07 10:04:34;;;;;;;12.68;1.85;;;6.00;99.90;;;;;;6311280;22;20002;-73
2022/01/07 10:07:20;;;;;;;13.55;2.90;;;6.00;99.90;;;;;;6311416;22;20003;-73
2022/01/07 10:10:00;;;;;;;10.38;2.83;;;6.00;99.90;;;;;;6339281;22;20006;-73
2022/01/07 10:12:27;;;;;;;8.82;2.00;;;6.00;99.90;;;;;;6311364;22;20422;-73
2022/01/07 10:15:12;;;;;;;4.40;1.35;;;6.00;99.90;;;;;;6338893;22;19999;-73
2022/01/07 10:17:38;;;;;;;9.93;2.00;;;6.00;99.90;;;;;;6338801;22;19999;-73
2022/01/07 10:20:04;;;;;;;22.52;2.67;;;6.00;99.90;;;;;;6338625;22;20370;-73
2022/01/07 10:22:58;;;;;;;6.35;1.42;;;6.00;99.90;;;;;;6311065;22;19999;-73
2022/01/07 10:25:29;;;;;;;5.15;2.13;;;6.00;99.90;;;;;;6339597;22;20007;-73
2022/01/07 10:28:31;;;;;;;9.35;2.00;;;6.00;99.90;;;;;;6340026;22;19999;-73
2022/01/07 10:30:59;;;;;;;6.65;1.63;;;6.10;99.90;;;;;;6260018;22;20007;-73
2022/01/07 10:33:34;;;;;;;8.23;2.43;;;6.10;99.90;;;;;;6313045;22;20102;-73
2022/01/07 10:36:06;;;;;;;6.25;2.15;;;6.00;99.90;;;;;;6340499;22;20319;-73
2022/01/07 10:38:32;;;;;;;10.38;2.22;;;6.00;99.90;;;;;;6340763;22;19995;-73
2022/01/07 10:40:59;;;;;;;7.45;2.75;;;6.10;99.90;;;;;;6340846;22;20022;-73
2022/01/07 10:43:29;;;;;;;6.32;1.05;;;6.10;99.90;;;;;;6312989;22;20072;-73
2022/01/07 10:45:57;;;;;;;13.20;2.35;;;6.00;99.90;;;;;;6340543;22;20006;-73
2022/01/07 10:48:39;;;;;;;6.78;1.02;;;5.90;99.90;;;;;;6340530;22;20005;-73
2022/01/07 10:51:14;;;;;;;11.90;1.63;;;6.00;99.90;;;;;;6313221;22;20072;-75
2022/01/07 10:53:40;;;;;;;4.75;1.35;;;5.90;99.90;;;;;;6312912;22;19998;-75
2022/01/07 10:56:14;;;;;;;10.18;1.80;;;5.90;99.90;;;;;;6314519;22;20002;-75
2022/01/07 10:58:43;;;;;;;4.88;0.80;;;5.90;99.90;;;;;;6312827;22;20121;-75
2022/01/07 11:01:39;;;;;;;10.77;1.20;;;5.90;99.90;;;;;;6340516;22;19998;-75
2022/01/07 11:04:13;;;;;;;6.75;0.63;;;5.90;99.90;;;;;;6297528;22;20073;-75
2022/01/07 11:06:39;;;;;;;3.67;0.22;;;5.90;99.90;;;;;;6340832;22;20045;-75
2022/01/07 11:09:09;;;;;;;5.45;0.20;;;5.90;99.90;;;;;;6312962;22;20435;-75
2022/01/07 11:11:39;;;;;;;2.17;0.10;;;5.90;99.90;;;;;;6312858;22;20022;-75
2022/01/07 11:14:07;;;;;;;5.07;1.70;;;5.90;99.90;;;;;;6340512;22;20002;-75
2022/01/07 11:16:35;;;;;;;4.30;0.73;;;6.00;99.90;;;;;;6340456;22;20357;-75
2022/01/07 11:19:01;;;;;;;6.47;1.63;;;5.90;99.90;;;;;;6340426;22;20410;-75
2022/01/07 11:21:27;;;;;;;7.53;1.70;;;5.90;99.90;;;;;;6340151;22;20482;-75
2022/01/07 11:23:53;;;;;;;4.65;0.80;;;5.80;99.90;;;;;;6312750;22;19999;-75
2022/01/07 11:26:18;;;;;;;10.95;0.93;;;5.90;99.90;;;;;;6312917;22;20006;-75
2022/01/07 11:29:01;;;;;;;5.20;0.95;;;5.90;99.90;;;;;;6340346;22;20071;-75
2022/01/07 11:31:27;;;;;;;13.88;1.00;;;6.00;99.90;;;;;;6340059;22;19999;-76
2022/01/07 11:34:17;;;;;;;2.50;0.80;;;6.10;99.90;;;;;;6340163;22;19998;-75
2022/01/07 11:36:43;;;;;;;8.38;0.85;;;6.20;99.90;;;;;;6312488;22;20007;-75
2022/01/07 11:39:08;;;;;;;7.80;0.45;;;6.40;99.90;;;;;;6312422;22;20010;-75
2022/01/07 11:41:41;;;;;;;2.63;0.20;;;6.40;99.90;;;;;;6340099;22;20003;-75
2022/01/07 11:44:12;;;;;;;3.42;0.20;;;6.40;99.90;;;;;;6340805;22;19999;-75
2022/01/07 11:46:38;;;;;;;5.70;0.20;;;6.50;99.90;;;;;;6340791;22;20022;-75
2022/01/07 11:49:03;;;;;;;3.33;0.28;;;6.70;99.90;;;;;;6340305;22;20006;-75
2022/01/07 11:51:37;;;;;;;5.13;0.88;;;6.80;99.90;;;;;;6340011;22;20010;-75
2022/01/07 11:54:05;;;;;;;4.65;0.10;;;6.90;99.90;;;;;;6340049;22;20026;-75
2022/01/07 11:56:32;;;;;;;4.32;0.85;;;6.80;99.90;;;;;;6312339;22;20010;-75
2022/01/07 11:59:09;;;;;;;5.40;0.52;;;6.80;99.90;;;;;;6312206;22;20020;-75
2022/01/07 12:01:37;;;;;;;9.63;1.15;;;6.80;99.90;;;;;;6339988;22;20002;-75
2022/01/07 12:04:15;;;;;;;10.87;0.30;;;6.60;99.90;;;;;;6339825;22;20376;-75
2022/01/07 12:06:41;;;;;;;0.60;0.20;;;6.50;99.90;;;;;;6340069;22;20065;-75
2022/01/07 12:09:16;;;;;;;3.60;0.08;;;6.50;99.90;;;;;;6339703;22;19999;-75
2022/01/07 12:11:53;;;;;;;4.63;0.30;;;6.40;99.90;;;;;;6339835;22;20068;-75
2022/01/07 12:14:26;;;;;;;2.33;0.22;;;6.30;99.90;;;;;;6311990;22;20024;-75
2022/01/07 12:16:54;;;;;;;7.72;0.28;;;6.20;99.90;;;;;;6340534;22;20023;-75
2022/01/07 12:19:20;;;;;;;4.57;0.60;;;6.10;99.90;;;;;;6339673;22;20007;-75
2022/01/07 12:21:48;;;;;;;7.05;0.25;;;6.00;99.90;;;;;;6339659;22;20025;-75
2022/01/07 12:24:16;;;;;;;12.55;0.82;;;6.00;99.90;;;;;;6339675;22;19995;-75
2022/01/07 12:26:42;;;;;;;4.10;0.50;;;6.00;99.90;;;;;;6339592;22;20033;-75
2022/01/07 12:29:20;;;;;;;2.92;0.00;;;6.00;99.90;;;;;;6312139;22;19995;-75
2022/01/07 12:31:54;;;;;;;7.88;0.10;;;6.00;99.90;;;;;;6339656;22;20006;-75
2022/01/07 12:34:32;;;;;;;2.58;0.00;;;6.00;99.90;;;;;;6311887;22;20509;-75
2022/01/07 12:37:10;;;;;;;7.47;0.63;;;6.00;99.90;;;;;;6312194;22;20104;-75
2022/01/07 12:39:41;;;;;;;3.80;0.10;;;6.10;99.90;;;;;;6311816;22;19999;-75
2022/01/07 12:42:09;;;;;;;10.27;0.32;;;6.00;99.90;;;;;;6311868;22;20025;-75
2022/01/07 12:44:36;;;;;;;6.80;1.40;;;6.10;99.90;;;;;;6311788;22;20088;-74
2022/01/07 12:47:02;;;;;;;4.47;0.15;;;6.00;99.90;;;;;;6339364;22;20003;-75
2022/01/07 12:49:38;;;;;;;3.78;0.30;;;5.90;99.90;;;;;;6339347;22;20338;-75
2022/01/07 12:52:09;;;;;;;6.82;0.50;;;5.90;99.90;;;;;;6338994;22;20056;-75
2022/01/07 12:54:35;;;;;;;4.35;0.08;;;5.80;99.90;;;;;;6339370;22;20002;-75
2022/01/07 12:57:02;;;;;;;8.25;0.63;;;5.80;99.90;;;;;;6340153;22;20021;-75
2022/01/07 12:59:29;;;;;;;2.60;0.00;;;5.70;99.90;;;;;;6339275;22;20442;-75
2022/01/07 13:01:55;;;;;;;3.28;0.10;;;5.60;99.90;;;;;;6339304;22;19991;-75
2022/01/07 13:04:22;;;;;;;6.00;0.15;;;5.50;99.90;;;;;;6339938;22;20051;-75
2022/01/07 13:06:49;;;;;;;4.78;0.45;;;5.40;99.90;;;;;;6311836;22;20025;-75
2022/01/07 13:09:20;;;;;;;3.85;0.40;;;5.40;99.90;;;;;;6311568;22;19999;-75